createdAt,value
2019-05-30T00:00:18.110Z,4.93
2019-05-30T00:01:23.514Z,3.80
2019-05-30T00:02:29.237Z,3.27
2019-05-30T00:03:34.466Z,4.20
2019-05-30T00:04:40.269Z,6.80
2019-05-30T00:05:45.524Z,5.57
2019-05-30T00:06:51.350Z,3.07
2019-05-30T00:07:56.537Z,4.13
2019-05-30T00:09:03.253Z,2.47
2019-05-30T00:10:08.986Z,2.30
2019-05-30T00:11:14.932Z,3.53
2019-05-30T00:12:20.070Z,3.33
2019-05-30T00:13:26.087Z,3.20
2019-05-30T00:14:32.958Z,2.23
2019-05-30T00:15:38.831Z,2.00
2019-05-30T00:16:44.057Z,4.07
2019-05-30T00:17:49.847Z,6.60
2019-05-30T00:18:55.105Z,3.77
2019-05-30T00:20:01.055Z,3.87
2019-05-30T00:21:07.678Z,4.93
2019-05-30T00:22:13.535Z,6.37
2019-05-30T00:23:18.803Z,2.20
2019-05-30T00:24:24.626Z,2.63
2019-05-30T00:25:32.163Z,3.03
2019-05-30T00:26:38.429Z,4.60
2019-05-30T00:27:43.564Z,3.27
2019-05-30T00:28:52.186Z,3.40
2019-05-30T00:29:57.406Z,4.23
2019-05-30T00:31:03.149Z,4.00
2019-05-30T00:32:08.313Z,4.13
2019-05-30T00:33:14.126Z,3.83
2019-05-30T00:34:19.343Z,2.63
2019-05-30T00:35:27.741Z,3.90
2019-05-30T00:36:47.869Z,2.93
2019-05-30T00:37:53.727Z,3.43
2019-05-30T00:38:59.769Z,5.47
2019-05-30T00:40:06.310Z,5.37
2019-05-30T00:41:12.583Z,2.57
2019-05-30T00:42:18.426Z,3.77
2019-05-30T00:43:26.431Z,3.40
2019-05-30T00:44:32.186Z,2.63
2019-05-30T00:45:37.335Z,3.73
2019-05-30T00:46:43.161Z,3.10
2019-05-30T00:47:48.370Z,2.40
2019-05-30T00:48:54.178Z,4.70
2019-05-30T00:50:00.207Z,3.87
2019-05-30T00:51:06.728Z,4.97
2019-05-30T00:52:12.163Z,3.67
2019-05-30T00:53:17.953Z,3.17
2019-05-30T00:54:23.305Z,2.73
2019-05-30T00:55:29.090Z,3.17
2019-05-30T00:56:34.308Z,4.43
2019-05-30T00:57:40.066Z,2.87
2019-05-30T00:58:45.296Z,3.53
2019-05-30T00:59:51.098Z,3.10
2019-05-30T01:00:56.791Z,4.03
2019-05-30T01:02:02.831Z,3.00
2019-05-30T01:03:09.072Z,5.07
2019-05-30T01:04:15.122Z,3.00
2019-05-30T01:05:20.396Z,3.50
2019-05-30T01:06:28.481Z,5.20
2019-05-30T01:07:33.746Z,5.27
2019-05-30T01:08:39.514Z,3.83
2019-05-30T01:09:45.771Z,2.87
2019-05-30T01:10:52.709Z,2.93
2019-05-30T01:11:59.025Z,4.47
2019-05-30T01:13:05.180Z,4.37
2019-05-30T01:14:10.601Z,3.73
2019-05-30T01:15:17.620Z,4.67
2019-05-30T01:16:22.936Z,3.10
2019-05-30T01:17:28.666Z,4.33
2019-05-30T01:18:33.955Z,3.30
2019-05-30T01:19:39.710Z,5.97
2019-05-30T01:20:45.360Z,2.90
2019-05-30T01:21:52.262Z,3.63
2019-05-30T01:22:57.442Z,3.47
2019-05-30T01:24:03.605Z,4.33
2019-05-30T01:25:08.953Z,3.83
2019-05-30T01:26:15.009Z,3.07
2019-05-30T01:27:20.261Z,2.93
2019-05-30T01:28:27.055Z,4.20
2019-05-30T01:29:32.309Z,2.83
2019-05-30T01:30:38.052Z,2.70
2019-05-30T01:31:43.277Z,3.60
2019-05-30T01:32:49.080Z,4.87
2019-05-30T01:33:54.353Z,5.13
2019-05-30T01:35:01.964Z,4.50
2019-05-30T01:36:07.965Z,3.47
2019-05-30T01:37:13.855Z,4.13
2019-05-30T01:38:19.126Z,2.97
2019-05-30T01:39:24.970Z,3.57
2019-05-30T01:40:30.214Z,4.70
2019-05-30T01:41:38.722Z,4.23
2019-05-30T01:42:44.085Z,4.07
2019-05-30T01:43:49.867Z,4.00
2019-05-30T01:44:55.023Z,4.07
2019-05-30T01:46:02.033Z,5.57
2019-05-30T01:47:08.383Z,4.63
2019-05-30T01:48:14.391Z,6.77
2019-05-30T01:49:19.671Z,5.30
2019-05-30T01:50:25.558Z,4.00
2019-05-30T01:51:30.746Z,5.43
2019-05-30T01:52:39.114Z,3.10
2019-05-30T01:53:44.226Z,3.27
2019-05-30T01:54:50.052Z,3.43
2019-05-30T01:55:55.293Z,3.50
2019-05-30T01:57:01.054Z,7.80
2019-05-30T01:58:07.224Z,3.80
2019-05-30T01:59:13.067Z,3.87
2019-05-30T02:00:21.312Z,2.90
2019-05-30T02:01:25.989Z,3.43
2019-05-30T02:02:31.206Z,2.33
2019-05-30T02:03:40.351Z,3.67
2019-05-30T02:04:45.632Z,5.40
2019-05-30T02:05:51.502Z,2.53
2019-05-30T02:06:56.753Z,3.40
2019-05-30T02:08:03.098Z,4.80
2019-05-30T02:09:10.415Z,4.47
2019-05-30T02:10:16.763Z,5.27
2019-05-30T02:11:22.090Z,3.33
2019-05-30T02:12:27.922Z,4.60
2019-05-30T02:13:33.077Z,7.27
2019-05-30T02:14:41.906Z,3.20
2019-05-30T02:15:47.193Z,3.23
2019-05-30T02:16:52.961Z,3.70
2019-05-30T02:17:59.433Z,3.10
2019-05-30T02:19:05.825Z,3.10
2019-05-30T02:20:11.250Z,4.00
2019-05-30T02:21:17.112Z,3.53
2019-05-30T02:22:22.394Z,4.10
2019-05-30T02:23:28.364Z,4.37
2019-05-30T02:24:33.517Z,5.37
2019-05-30T02:25:39.445Z,5.43
2019-05-30T02:26:44.611Z,3.17
2019-05-30T02:27:50.370Z,4.87
2019-05-30T02:28:55.683Z,3.73
2019-05-30T02:30:03.961Z,5.13
2019-05-30T02:31:09.583Z,2.77
2019-05-30T02:32:15.891Z,4.20
2019-05-30T02:33:21.181Z,3.20
2019-05-30T02:34:26.911Z,6.57
2019-05-30T02:35:35.206Z,3.03
2019-05-30T02:36:41.101Z,4.57
2019-05-30T02:37:46.319Z,3.80
2019-05-30T02:38:52.140Z,4.07
2019-05-30T02:40:00.923Z,5.63
2019-05-30T02:41:05.722Z,4.03
2019-05-30T02:42:11.820Z,4.37
2019-05-30T02:43:17.718Z,4.43
2019-05-30T02:44:22.937Z,3.97
2019-05-30T02:45:28.898Z,3.00
2019-05-30T02:46:34.095Z,4.73
2019-05-30T02:47:39.906Z,5.60
2019-05-30T02:48:57.978Z,5.43
2019-05-30T02:49:52.575Z,6.20
2019-05-30T02:50:57.722Z,4.93
2019-05-30T02:52:04.782Z,3.77
2019-05-30T02:53:12.634Z,5.37
2019-05-30T02:54:17.679Z,9.03
2019-05-30T02:55:22.805Z,4.13
2019-05-30T02:56:28.598Z,4.13
2019-05-30T02:57:35.395Z,3.60
2019-05-30T02:58:41.206Z,4.33
2019-05-30T02:59:46.375Z,3.87
2019-05-30T03:00:52.227Z,3.50
2019-05-30T03:02:02.012Z,3.73
2019-05-30T03:03:06.543Z,3.73
2019-05-30T03:04:12.911Z,6.13
2019-05-30T03:05:18.833Z,5.87
2019-05-30T03:06:24.006Z,4.50
2019-05-30T03:07:29.910Z,3.47
2019-05-30T03:08:35.125Z,5.83
2019-05-30T03:09:44.168Z,3.67
2019-05-30T03:10:49.448Z,3.87
2019-05-30T03:11:55.170Z,3.80
2019-05-30T03:13:01.783Z,4.07
2019-05-30T03:14:12.020Z,2.60
2019-05-30T03:15:15.856Z,6.13
2019-05-30T03:16:21.821Z,4.23
2019-05-30T03:17:28.698Z,6.10
2019-05-30T03:18:34.531Z,3.47
2019-05-30T03:19:39.710Z,3.47
2019-05-30T03:20:47.351Z,5.40
2019-05-30T03:21:52.589Z,4.97
2019-05-30T03:22:58.702Z,2.90
2019-05-30T03:24:05.122Z,4.67
2019-05-30T03:25:15.590Z,4.53
2019-05-30T03:26:18.201Z,3.53
2019-05-30T03:27:23.944Z,4.83
2019-05-30T03:28:29.341Z,4.23
2019-05-30T03:29:35.305Z,3.10
2019-05-30T03:30:40.497Z,3.60
2019-05-30T03:31:47.534Z,3.60
2019-05-30T03:33:06.682Z,3.97
2019-05-30T03:34:00.136Z,4.67
2019-05-30T03:35:15.052Z,4.20
2019-05-30T03:36:23.937Z,4.77
2019-05-30T03:37:28.477Z,3.77
2019-05-30T03:38:29.523Z,3.03
2019-05-30T03:39:34.894Z,4.73
2019-05-30T03:40:40.671Z,4.83
2019-05-30T03:41:45.968Z,4.00
2019-05-30T03:42:54.575Z,4.70
2019-05-30T03:43:59.746Z,5.30
2019-05-30T03:45:08.473Z,6.33
2019-05-30T03:46:18.014Z,7.60
2019-05-30T03:47:25.860Z,7.07
2019-05-30T03:48:31.796Z,2.90
2019-05-30T03:49:40.501Z,3.90
2019-05-30T03:50:49.374Z,3.67
2019-05-30T03:51:58.178Z,4.60
2019-05-30T03:53:04.549Z,4.97
2019-05-30T03:54:13.640Z,5.17
2019-05-30T03:55:20.278Z,5.17
2019-05-30T03:56:34.004Z,7.70
2019-05-30T03:57:43.775Z,5.73
2019-05-30T03:59:26.056Z,5.83
2019-05-30T04:00:51.148Z,5.43
2019-05-30T04:02:13.447Z,5.03
2019-05-30T04:03:43.063Z,3.10
2019-05-30T04:04:54.303Z,4.33
2019-05-30T04:06:02.526Z,6.07
2019-05-30T04:07:15.780Z,3.43
2019-05-30T04:08:22.946Z,3.60
2019-05-30T04:09:30.989Z,5.07
2019-05-30T04:10:40.353Z,5.07
2019-05-30T04:11:54.591Z,7.37
2019-05-30T04:13:23.439Z,6.87
2019-05-30T04:14:32.157Z,6.03
2019-05-30T04:15:38.693Z,3.67
2019-05-30T04:16:44.466Z,4.33
2019-05-30T04:17:49.628Z,4.00
2019-05-30T04:18:55.618Z,5.33
2019-05-30T04:20:00.909Z,4.87
2019-05-30T04:21:08.541Z,3.27
2019-05-30T04:22:13.651Z,5.37
2019-05-30T04:23:20.791Z,4.47
2019-05-30T04:24:26.062Z,5.37
2019-05-30T04:25:31.811Z,4.83
2019-05-30T04:26:37.056Z,7.17
2019-05-30T04:27:42.876Z,4.07
2019-05-30T04:28:48.073Z,6.40
2019-05-30T04:29:53.994Z,5.50
2019-05-30T04:30:59.222Z,4.87
2019-05-30T04:32:05.054Z,4.57
2019-05-30T04:33:20.799Z,4.90
2019-05-30T04:34:19.594Z,4.13
2019-05-30T04:35:24.883Z,6.47
2019-05-30T04:36:30.816Z,5.33
2019-05-30T04:37:36.079Z,5.20
2019-05-30T04:38:42.074Z,4.70
2019-05-30T04:39:47.323Z,4.77
2019-05-30T04:40:53.165Z,5.67
2019-05-30T04:41:58.445Z,9.23
2019-05-30T04:43:04.340Z,8.20
2019-05-30T04:44:11.466Z,5.70
2019-05-30T04:45:17.931Z,7.60
2019-05-30T04:46:23.385Z,4.80
2019-05-30T04:47:29.223Z,5.83
2019-05-30T04:48:34.495Z,6.07
2019-05-30T04:49:40.337Z,7.37
2019-05-30T04:50:45.501Z,5.83
2019-05-30T04:51:51.419Z,4.17
2019-05-30T04:52:56.837Z,5.10
2019-05-30T04:54:02.615Z,6.37
2019-05-30T04:55:10.538Z,4.53
2019-05-30T04:56:17.158Z,4.53
2019-05-30T04:57:26.923Z,4.17
2019-05-30T04:58:30.802Z,4.90
2019-05-30T04:59:36.084Z,7.27
2019-05-30T05:00:41.887Z,4.10
2019-05-30T05:01:47.233Z,6.97
2019-05-30T05:02:52.995Z,5.27
2019-05-30T05:03:58.210Z,5.30
2019-05-30T05:05:04.235Z,5.07
2019-05-30T05:06:09.532Z,4.97
2019-05-30T05:07:15.655Z,4.60
2019-05-30T05:08:22.113Z,5.57
2019-05-30T05:09:29.269Z,7.57
2019-05-30T05:10:34.553Z,5.93
2019-05-30T05:11:40.468Z,5.27
2019-05-30T05:12:45.744Z,5.87
2019-05-30T05:13:51.555Z,3.77
2019-05-30T05:14:56.836Z,5.97
2019-05-30T05:16:02.565Z,4.20
2019-05-30T05:17:07.690Z,4.17
2019-05-30T05:18:14.774Z,5.97
2019-05-30T05:19:22.215Z,5.47
2019-05-30T05:20:28.527Z,5.23
2019-05-30T05:21:33.658Z,5.03
2019-05-30T05:22:39.754Z,6.13
2019-05-30T05:23:45.219Z,4.97
2019-05-30T05:24:51.041Z,4.83
2019-05-30T05:26:00.974Z,8.33
2019-05-30T05:27:03.731Z,5.93
2019-05-30T05:28:08.915Z,5.53
2019-05-30T05:29:15.783Z,4.43
2019-05-30T05:30:22.512Z,5.70
2019-05-30T05:31:28.288Z,6.23
2019-05-30T05:32:33.475Z,5.63
2019-05-30T05:33:39.203Z,3.83
2019-05-30T05:34:46.190Z,6.97
2019-05-30T05:35:51.970Z,4.63
2019-05-30T05:36:57.136Z,5.47
2019-05-30T05:38:03.070Z,5.73
2019-05-30T05:39:08.388Z,6.40
2019-05-30T05:40:16.054Z,5.07
2019-05-30T05:41:22.307Z,5.43
2019-05-30T05:42:30.272Z,4.93
2019-05-30T05:43:35.550Z,11.53
2019-05-30T05:44:41.389Z,5.97
2019-05-30T05:45:46.592Z,6.20
2019-05-30T05:46:52.384Z,4.87
2019-05-30T05:47:57.571Z,4.77
2019-05-30T05:49:03.278Z,4.00
2019-05-30T05:50:08.626Z,5.67
2019-05-30T05:51:14.533Z,7.80
2019-05-30T05:52:20.717Z,7.67
2019-05-30T05:53:26.622Z,7.37
2019-05-30T05:54:31.861Z,5.40
2019-05-30T05:55:37.695Z,6.60
2019-05-30T05:56:42.879Z,5.47
2019-05-30T05:57:49.576Z,4.23
2019-05-30T05:58:54.944Z,5.17
2019-05-30T06:00:00.723Z,4.57
2019-05-30T06:01:06.637Z,6.60
2019-05-30T06:02:13.563Z,7.30
2019-05-30T06:03:20.019Z,5.70
2019-05-30T06:04:27.264Z,4.67
2019-05-30T06:05:32.531Z,5.00
2019-05-30T06:06:38.361Z,5.37
2019-05-30T06:07:43.649Z,4.27
2019-05-30T06:08:49.361Z,5.33
2019-05-30T06:09:54.520Z,4.53
2019-05-30T06:11:00.380Z,5.70
2019-05-30T06:12:05.570Z,5.97
2019-05-30T06:13:11.254Z,5.00
2019-05-30T06:14:17.702Z,10.37
2019-05-30T06:15:23.554Z,4.30
2019-05-30T06:16:28.786Z,6.70
2019-05-30T06:17:34.556Z,5.63
2019-05-30T06:18:39.775Z,5.87
2019-05-30T06:19:47.026Z,7.60
2019-05-30T06:20:52.313Z,5.67
2019-05-30T06:21:58.059Z,4.67
2019-05-30T06:23:06.335Z,4.87
2019-05-30T06:24:12.170Z,4.67
2019-05-30T06:25:19.054Z,9.70
2019-05-30T06:26:25.908Z,5.00
2019-05-30T06:27:32.157Z,5.60
2019-05-30T06:28:37.938Z,5.23
2019-05-30T06:29:46.695Z,4.80
2019-05-30T06:31:02.453Z,5.87
2019-05-30T06:32:08.094Z,6.77
2019-05-30T06:33:14.130Z,4.57
2019-05-30T06:34:29.338Z,4.17
2019-05-30T06:35:27.466Z,6.93
2019-05-30T06:36:33.885Z,3.97
2019-05-30T06:37:39.767Z,5.10
2019-05-30T06:38:45.033Z,4.60
2019-05-30T06:39:50.860Z,6.53
2019-05-30T06:40:56.001Z,8.03
2019-05-30T06:42:01.739Z,4.23
2019-05-30T06:43:08.646Z,6.37
2019-05-30T06:44:14.557Z,4.70
2019-05-30T06:45:23.641Z,5.37
2019-05-30T06:46:28.384Z,4.87
2019-05-30T06:47:33.711Z,4.23
2019-05-30T06:48:39.740Z,4.17
2019-05-30T06:49:45.063Z,4.50
2019-05-30T06:50:51.279Z,5.60
2019-05-30T06:51:56.539Z,5.23
2019-05-30T06:53:02.575Z,5.37
2019-05-30T06:54:07.757Z,4.07
2019-05-30T06:55:14.290Z,6.30
2019-05-30T06:56:19.497Z,4.43
2019-05-30T06:57:25.390Z,6.03
2019-05-30T06:58:45.736Z,5.97
2019-05-30T06:59:38.035Z,4.23
2019-05-30T07:00:43.183Z,4.33
2019-05-30T07:01:52.178Z,4.67
2019-05-30T07:02:57.523Z,5.00
2019-05-30T07:04:03.701Z,5.57
2019-05-30T07:05:09.883Z,5.83
2019-05-30T07:06:16.402Z,4.60
2019-05-30T07:07:23.099Z,4.27
2019-05-30T07:08:29.106Z,4.50
2019-05-30T07:09:34.528Z,5.30
2019-05-30T07:10:40.363Z,4.17
2019-05-30T07:11:45.474Z,4.27
2019-05-30T07:12:51.343Z,7.70
2019-05-30T07:13:56.504Z,3.63
2019-05-30T07:15:02.254Z,7.00
2019-05-30T07:16:07.401Z,5.43
2019-05-30T07:17:13.246Z,6.73
2019-05-30T07:18:18.431Z,4.50
2019-05-30T07:19:25.283Z,4.17
2019-05-30T07:20:31.659Z,8.63
2019-05-30T07:21:37.610Z,5.70
2019-05-30T07:22:42.749Z,5.30
2019-05-30T07:23:48.466Z,5.23
2019-05-30T07:24:53.602Z,3.63
2019-05-30T07:27:32.042Z,5.00
2019-05-30T07:28:37.940Z,7.47
2019-05-30T07:29:43.211Z,5.77
2019-05-30T07:30:48.943Z,4.37
2019-05-30T07:31:55.769Z,5.60
2019-05-30T07:33:01.585Z,8.20
2019-05-30T07:34:06.883Z,6.53
2019-05-30T07:35:12.933Z,3.47
2019-05-30T07:36:18.189Z,3.63
2019-05-30T07:37:24.533Z,3.67
2019-05-30T07:38:30.522Z,3.93
2019-05-30T07:39:37.654Z,7.33
2019-05-30T07:40:42.960Z,4.07
2019-05-30T07:42:05.186Z,3.43
2019-05-30T07:42:57.320Z,3.70
2019-05-30T07:44:03.116Z,6.57
2019-05-30T07:45:09.891Z,4.23
2019-05-30T07:46:15.750Z,3.87
2019-05-30T07:47:21.008Z,5.63
2019-05-30T07:48:28.018Z,3.60
2019-05-30T07:49:34.551Z,4.03
2019-05-30T07:50:41.591Z,3.70
2019-05-30T07:51:46.819Z,6.07
2019-05-30T07:52:52.525Z,6.50
2019-05-30T07:54:01.550Z,4.20
2019-05-30T07:55:08.214Z,5.23
2019-05-30T07:56:13.475Z,2.97
2019-05-30T07:57:19.265Z,6.57
2019-05-30T07:58:24.463Z,4.30
2019-05-30T07:59:30.375Z,4.73
2019-05-30T08:00:35.677Z,5.97
2019-05-30T08:01:41.599Z,6.43
2019-05-30T08:02:46.821Z,5.43
2019-05-30T08:03:52.563Z,5.63
2019-05-30T08:04:57.830Z,3.20
2019-05-30T08:06:03.605Z,3.10
2019-05-30T08:07:08.911Z,3.20
2019-05-30T08:08:14.623Z,4.57
2019-05-30T08:09:19.774Z,5.60
2019-05-30T08:10:25.584Z,6.13
2019-05-30T08:11:30.888Z,6.20
2019-05-30T08:12:36.689Z,4.13
2019-05-30T08:13:41.968Z,3.33
2019-05-30T08:14:47.664Z,4.80
2019-05-30T08:15:52.912Z,3.90
2019-05-30T08:16:58.696Z,5.50
2019-05-30T08:18:03.937Z,5.00
2019-05-30T08:19:09.711Z,5.00
2019-05-30T08:20:15.862Z,9.70
2019-05-30T08:21:21.728Z,5.73
2019-05-30T08:22:27.961Z,6.53
2019-05-30T08:23:34.261Z,8.37
2019-05-30T08:24:39.437Z,9.43
2019-05-30T08:25:45.106Z,5.37
2019-05-30T08:26:50.263Z,10.43
2019-05-30T08:27:56.105Z,9.93
2019-05-30T08:29:01.234Z,15.87
2019-05-30T08:30:07.628Z,7.30
2019-05-30T08:31:12.809Z,5.27
2019-05-30T08:32:18.575Z,6.30
2019-05-30T08:33:23.773Z,7.00
2019-05-30T08:34:30.458Z,5.83
2019-05-30T08:35:43.535Z,4.67
2019-05-30T08:36:43.099Z,8.50
2019-05-30T08:37:48.398Z,6.63
2019-05-30T08:38:54.050Z,6.47
2019-05-30T08:40:00.270Z,4.20
2019-05-30T08:41:06.001Z,6.40
2019-05-30T08:42:11.246Z,5.47
2019-05-30T08:43:17.041Z,5.67
2019-05-30T08:44:22.225Z,7.17
2019-05-30T08:45:28.046Z,5.63
2019-05-30T08:46:33.727Z,6.17
2019-05-30T08:47:40.650Z,6.70
2019-05-30T08:48:46.095Z,6.90
2019-05-30T08:49:51.914Z,8.53
2019-05-30T08:50:57.184Z,4.70
2019-05-30T08:52:02.963Z,5.37
2019-05-30T08:53:08.142Z,7.47
2019-05-30T08:54:14.205Z,9.13
2019-05-30T08:55:19.722Z,4.93
2019-05-30T08:56:28.417Z,5.23
2019-05-30T08:57:32.543Z,7.43
2019-05-30T08:58:38.783Z,5.10
2019-05-30T08:59:44.874Z,7.67
2019-05-30T09:00:50.792Z,7.37
2019-05-30T09:01:56.050Z,5.03
2019-05-30T09:03:02.103Z,9.23
2019-05-30T09:04:07.254Z,5.87
2019-05-30T09:05:13.461Z,5.60
2019-05-30T09:06:18.614Z,6.80
2019-05-30T09:07:24.447Z,5.10
2019-05-30T09:08:29.630Z,5.27
2019-05-30T09:09:36.486Z,5.53
2019-05-30T09:10:42.626Z,7.80
2019-05-30T09:11:48.773Z,9.37
2019-05-30T09:12:54.300Z,8.57
2019-05-30T09:14:00.408Z,6.80
2019-05-30T09:15:07.110Z,6.50
2019-05-30T09:16:12.889Z,6.50
2019-05-30T09:17:21.380Z,7.57
2019-05-30T09:18:27.627Z,7.13
2019-05-30T09:19:35.157Z,6.57
2019-05-30T09:20:41.909Z,8.73
2019-05-30T09:21:47.541Z,6.87
2019-05-30T09:22:53.659Z,8.63
2019-05-30T09:24:02.393Z,7.67
2019-05-30T09:25:08.758Z,6.83
2019-05-30T09:26:14.122Z,8.37
2019-05-30T09:27:20.427Z,7.60
2019-05-30T09:28:25.774Z,9.13
2019-05-30T09:29:31.593Z,11.27
2019-05-30T09:30:38.192Z,7.90
2019-05-30T09:31:45.001Z,11.73
2019-05-30T09:32:52.202Z,7.80
2019-05-30T09:33:58.373Z,7.57
2019-05-30T09:35:03.753Z,7.77
2019-05-30T09:36:13.495Z,6.93
2019-05-30T09:37:18.185Z,7.60
2019-05-30T09:38:24.092Z,8.40
2019-05-30T09:39:29.911Z,9.60
2019-05-30T09:40:36.623Z,12.03
2019-05-30T09:41:42.219Z,11.20
2019-05-30T09:42:50.409Z,12.53
2019-05-30T09:43:55.689Z,17.07
2019-05-30T09:45:01.730Z,13.63
2019-05-30T09:46:07.381Z,16.80
2019-05-30T09:47:15.061Z,15.60
2019-05-30T09:48:20.255Z,19.83
2019-05-30T09:49:26.168Z,17.47
2019-05-30T09:50:31.432Z,17.70
2019-05-30T09:51:37.191Z,18.63
2019-05-30T09:52:43.607Z,18.87
2019-05-30T09:53:52.852Z,20.70
2019-05-30T09:54:56.833Z,18.73
2019-05-30T09:56:02.524Z,19.43
2019-05-30T09:57:07.897Z,17.60
2019-05-30T09:58:13.826Z,18.17
2019-05-30T09:59:19.172Z,16.53
2019-05-30T10:00:25.385Z,19.13
2019-05-30T10:01:30.795Z,17.17
2019-05-30T10:02:36.658Z,17.70
2019-05-30T10:03:43.287Z,17.67
2019-05-30T10:04:50.390Z,22.23
2019-05-30T10:05:55.672Z,18.53
2019-05-30T10:07:01.518Z,18.90
2019-05-30T10:08:07.024Z,18.47
2019-05-30T10:09:12.820Z,18.47
2019-05-30T10:10:18.785Z,15.00
2019-05-30T10:11:24.620Z,17.17
2019-05-30T10:12:30.986Z,21.33
2019-05-30T10:13:36.718Z,17.23
2019-05-30T10:14:42.049Z,15.97
2019-05-30T10:15:48.553Z,16.87
2019-05-30T10:16:56.518Z,16.03
2019-05-30T10:18:01.273Z,19.27
2019-05-30T10:19:08.619Z,17.60
2019-05-30T10:20:15.331Z,20.47
2019-05-30T10:21:20.566Z,21.20
2019-05-30T10:22:26.405Z,21.27
2019-05-30T10:23:31.730Z,19.50
2019-05-30T10:24:37.805Z,42.50
2019-05-30T10:25:43.005Z,22.40
2019-05-30T10:26:49.047Z,40.87
2019-05-30T10:27:54.834Z,23.83
2019-05-30T10:29:00.838Z,31.90
2019-05-30T10:30:07.607Z,24.33
2019-05-30T10:31:13.454Z,31.53
2019-05-30T10:32:18.741Z,26.33
2019-05-30T10:33:24.639Z,40.57
2019-05-30T10:34:29.881Z,27.80
2019-05-30T10:35:35.670Z,22.50
2019-05-30T10:36:44.589Z,23.47
2019-05-30T10:37:50.938Z,23.87
2019-05-30T10:38:56.304Z,32.40
2019-05-30T10:40:05.231Z,29.13
2019-05-30T10:41:10.526Z,27.27
2019-05-30T10:42:16.211Z,34.70
2019-05-30T10:43:21.533Z,26.87
2019-05-30T10:44:27.382Z,30.73
2019-05-30T10:45:32.674Z,22.53
2019-05-30T10:46:38.599Z,22.07
2019-05-30T10:47:45.835Z,25.63
2019-05-30T10:48:52.672Z,32.63
2019-05-30T10:49:58.358Z,27.10
2019-05-30T10:51:04.431Z,24.67
2019-05-30T10:52:09.687Z,28.70
2019-05-30T10:53:15.546Z,24.90
2019-05-30T10:54:20.811Z,25.27
2019-05-30T10:55:27.096Z,24.17
2019-05-30T10:56:32.337Z,23.30
2019-05-30T10:57:38.610Z,24.27
2019-05-30T10:58:43.806Z,25.13
2019-05-30T10:59:50.853Z,22.97
2019-05-30T11:00:57.963Z,23.37
2019-05-30T11:02:03.874Z,20.10
2019-05-30T11:03:09.154Z,21.07
2019-05-30T11:04:14.999Z,24.73
2019-05-30T11:05:20.789Z,24.50
2019-05-30T11:06:36.807Z,23.47
2019-05-30T11:08:01.881Z,24.97
2019-05-30T11:09:05.273Z,25.00
2019-05-30T11:10:15.374Z,24.57
2019-05-30T11:11:21.114Z,22.60
2019-05-30T11:12:28.230Z,26.07
2019-05-30T11:13:34.152Z,26.13
2019-05-30T11:14:39.442Z,23.40
2019-05-30T11:15:45.367Z,27.70
2019-05-30T11:16:51.781Z,25.73
2019-05-30T11:17:57.828Z,25.93
2019-05-30T11:19:07.453Z,24.53
2019-05-30T11:20:10.698Z,23.37
2019-05-30T11:21:15.985Z,23.77
2019-05-30T11:22:21.816Z,23.47
2019-05-30T11:23:26.943Z,29.50
2019-05-30T11:24:32.845Z,26.80
2019-05-30T11:25:38.153Z,28.87
2019-05-30T11:26:44.977Z,29.20
2019-05-30T11:27:50.548Z,29.50
2019-05-30T11:28:56.776Z,27.83
2019-05-30T11:30:02.062Z,25.20
2019-05-30T11:31:08.077Z,25.10
2019-05-30T11:32:13.319Z,26.33
2019-05-30T11:33:20.213Z,30.33
2019-05-30T11:34:25.475Z,25.47
2019-05-30T11:35:31.436Z,24.30
2019-05-30T11:36:36.686Z,24.17
2019-05-30T11:37:42.528Z,27.30
2019-05-30T11:38:49.032Z,26.30
2019-05-30T11:39:55.347Z,26.03
2019-05-30T11:41:00.657Z,26.30
2019-05-30T11:42:07.660Z,25.83
2019-05-30T11:43:12.866Z,24.83
2019-05-30T11:44:18.694Z,25.30
2019-05-30T11:45:24.151Z,24.00
2019-05-30T11:46:29.899Z,27.47
2019-05-30T11:47:35.085Z,26.63
2019-05-30T11:48:40.784Z,22.80
2019-05-30T11:49:45.910Z,21.83
2019-05-30T11:50:52.022Z,26.93
2019-05-30T11:51:57.881Z,24.40
2019-05-30T11:53:04.706Z,24.40
2019-05-30T11:54:10.005Z,22.20
2019-05-30T11:55:15.972Z,24.57
2019-05-30T11:56:21.141Z,24.47
2019-05-30T11:57:27.042Z,22.87
2019-05-30T11:58:32.248Z,22.93
2019-05-30T11:59:40.734Z,22.00
2019-05-30T12:00:46.147Z,24.80
2019-05-30T12:01:53.106Z,25.50
2019-05-30T12:02:59.082Z,24.80
2019-05-30T12:04:04.956Z,24.93
2019-05-30T12:05:10.957Z,24.77
2019-05-30T12:06:16.817Z,25.17
2019-05-30T12:07:35.363Z,24.93
2019-05-30T12:08:29.348Z,23.53
2019-05-30T12:09:34.709Z,23.73
2019-05-30T12:10:40.532Z,24.77
2019-05-30T12:11:45.770Z,23.77
2019-05-30T12:12:51.579Z,23.43
2019-05-30T12:13:57.434Z,22.97
2019-05-30T12:15:03.295Z,22.53
2019-05-30T12:16:08.835Z,23.43
2019-05-30T12:17:14.586Z,24.20
2019-05-30T12:18:19.848Z,21.90
2019-05-30T12:19:25.891Z,23.27
2019-05-30T12:20:31.143Z,22.10
2019-05-30T12:21:36.873Z,21.70
2019-05-30T12:22:41.990Z,22.07
2019-05-30T12:23:47.846Z,23.20
2019-05-30T12:24:53.860Z,21.70
2019-05-30T12:26:00.172Z,21.57
2019-05-30T12:27:05.581Z,21.63
2019-05-30T12:28:11.461Z,20.50
2019-05-30T12:29:16.624Z,21.40
2019-05-30T12:30:23.469Z,21.20
2019-05-30T12:31:28.670Z,24.03
2019-05-30T12:32:34.472Z,21.33
2019-05-30T12:33:39.719Z,21.30
2019-05-30T12:34:45.595Z,19.83
2019-05-30T12:35:50.773Z,20.67
2019-05-30T12:36:56.602Z,21.73
2019-05-30T12:38:05.974Z,19.53
2019-05-30T12:39:09.478Z,20.43
2019-05-30T12:40:15.466Z,21.30
2019-05-30T12:41:21.551Z,19.57
2019-05-30T12:42:26.800Z,19.03
2019-05-30T12:43:32.565Z,19.47
2019-05-30T12:44:37.812Z,18.60
2019-05-30T12:45:43.634Z,18.13
2019-05-30T12:46:48.905Z,19.33
2019-05-30T12:47:55.158Z,17.57
2019-05-30T12:49:01.610Z,18.70
2019-05-30T12:50:08.065Z,19.10
2019-05-30T12:51:13.349Z,18.77
2019-05-30T12:52:19.191Z,18.10
2019-05-30T12:53:24.633Z,18.13
2019-05-30T12:54:30.569Z,18.67
2019-05-30T12:55:37.658Z,18.40
2019-05-30T12:56:43.225Z,19.23
2019-05-30T12:57:48.575Z,16.83
2019-05-30T12:58:54.585Z,18.20
2019-05-30T13:00:00.937Z,18.43
2019-05-30T13:01:07.112Z,16.37
2019-05-30T13:02:12.313Z,17.33
2019-05-30T13:03:18.121Z,15.73
2019-05-30T13:04:23.449Z,16.27
2019-05-30T13:05:29.536Z,15.23
2019-05-30T13:06:34.864Z,15.17
2019-05-30T13:07:40.766Z,15.53
2019-05-30T13:08:46.010Z,14.63
2019-05-30T13:09:51.814Z,16.13
2019-05-30T13:10:57.386Z,15.27
2019-05-30T13:12:03.359Z,15.63
2019-05-30T13:13:08.532Z,14.83
2019-05-30T13:14:14.465Z,15.50
2019-05-30T13:15:19.841Z,15.67
2019-05-30T13:16:25.665Z,15.60
2019-05-30T13:17:30.865Z,14.57
2019-05-30T13:18:36.751Z,15.97
2019-05-30T13:19:42.018Z,15.73
2019-05-30T13:20:47.773Z,15.73
2019-05-30T13:21:53.878Z,15.17
2019-05-30T13:23:00.605Z,14.53
2019-05-30T13:24:06.199Z,14.73
2019-05-30T13:25:14.679Z,22.47
2019-05-30T13:26:19.955Z,17.47
2019-05-30T13:27:25.965Z,17.33
2019-05-30T13:28:31.398Z,17.07
2019-05-30T13:29:37.578Z,16.00
2019-05-30T13:30:42.804Z,18.00
2019-05-30T13:31:48.614Z,17.17
2019-05-30T13:32:54.005Z,18.43
2019-05-30T13:34:02.946Z,19.10
2019-05-30T13:35:12.781Z,17.37
2019-05-30T13:36:18.623Z,17.23
2019-05-30T13:37:23.823Z,16.60
2019-05-30T13:38:29.727Z,18.03
2019-05-30T13:39:34.965Z,18.77
2019-05-30T13:40:40.748Z,18.67
2019-05-30T13:41:46.078Z,19.10
2019-05-30T13:42:51.819Z,17.03
2019-05-30T13:43:57.886Z,17.27
2019-05-30T13:45:04.203Z,17.67
2019-05-30T13:46:09.583Z,18.13
2019-05-30T13:47:15.700Z,17.20
2019-05-30T13:48:23.280Z,17.93
2019-05-30T13:49:29.213Z,18.27
2019-05-30T13:50:34.622Z,17.67
2019-05-30T13:51:40.591Z,17.60
2019-05-30T13:52:46.119Z,18.20
2019-05-30T13:53:52.148Z,17.87
2019-05-30T13:54:57.457Z,17.33
2019-05-30T13:56:03.496Z,15.77
2019-05-30T13:57:09.761Z,16.47
2019-05-30T13:58:15.833Z,16.13
2019-05-30T13:59:21.178Z,15.53
2019-05-30T14:00:27.270Z,16.53
2019-05-30T14:01:32.853Z,15.57
2019-05-30T14:02:38.845Z,14.80
2019-05-30T14:03:44.118Z,14.60
2019-05-30T14:04:50.004Z,14.33
2019-05-30T14:05:56.276Z,14.10
2019-05-30T14:07:02.300Z,13.37
2019-05-30T14:08:10.704Z,14.67
2019-05-30T14:09:15.357Z,12.27
2019-05-30T14:10:21.062Z,14.67
2019-05-30T14:11:27.090Z,17.13
2019-05-30T14:12:32.466Z,11.83
2019-05-30T14:13:38.456Z,11.60
2019-05-30T14:14:43.754Z,11.23
2019-05-30T14:15:49.739Z,11.33
2019-05-30T14:16:55.005Z,11.23
2019-05-30T14:18:05.080Z,12.70
2019-05-30T14:19:12.584Z,12.03
2019-05-30T14:20:22.242Z,10.23
2019-05-30T14:21:27.378Z,12.43
2019-05-30T14:22:33.140Z,9.67
2019-05-30T14:23:38.418Z,10.50
2019-05-30T14:24:44.435Z,15.67
2019-05-30T14:25:49.807Z,11.27
2019-05-30T14:26:55.618Z,11.90
2019-05-30T14:28:01.469Z,11.93
2019-05-30T14:29:07.741Z,9.63
2019-05-30T14:30:14.268Z,10.70
2019-05-30T14:31:20.102Z,10.83
2019-05-30T14:32:25.536Z,11.10
2019-05-30T14:33:31.630Z,8.77